createdAt,value
2019-02-15T00:01:10.812Z,82.31
2019-02-15T00:03:37.129Z,82.19
2019-02-15T00:06:03.440Z,82.26
2019-02-15T00:08:29.743Z,82.14
2019-02-15T00:10:56.052Z,82.12
2019-02-15T00:13:22.366Z,82.16
2019-02-15T00:15:48.671Z,82.56
2019-02-15T00:18:14.985Z,82.91
2019-02-15T00:20:41.293Z,83.06
2019-02-15T00:23:07.606Z,83.46
2019-02-15T00:25:33.912Z,83.62
2019-02-15T00:28:00.220Z,83.63
2019-02-15T00:30:26.528Z,83.79
2019-02-15T00:32:52.833Z,83.90
2019-02-15T00:35:19.141Z,83.86
2019-02-15T00:37:45.444Z,84.04
2019-02-15T00:40:11.752Z,84.16
2019-02-15T00:42:38.069Z,84.51
2019-02-15T00:45:04.371Z,84.50
2019-02-15T00:47:30.676Z,84.70
2019-02-15T00:49:56.985Z,85.00
2019-02-15T00:52:23.294Z,84.61
2019-02-15T00:54:49.600Z,85.14
2019-02-15T00:57:15.912Z,85.71
2019-02-15T00:59:42.220Z,85.75
2019-02-15T01:02:08.538Z,85.57
2019-02-15T01:04:34.845Z,84.95
2019-02-15T01:07:01.154Z,85.03
2019-02-15T01:09:27.458Z,84.97
2019-02-15T01:11:53.769Z,85.06
2019-02-15T01:14:20.077Z,85.40
2019-02-15T01:16:46.396Z,85.08
2019-02-15T01:19:12.706Z,84.96
2019-02-15T01:21:39.015Z,85.02
2019-02-15T01:24:05.324Z,85.22
2019-02-15T01:26:31.633Z,85.88
2019-02-15T01:28:57.943Z,86.06
2019-02-15T01:31:24.263Z,86.56
2019-02-15T01:33:50.574Z,86.88
2019-02-15T01:36:16.880Z,87.02
2019-02-15T01:38:43.189Z,87.42
2019-02-15T01:41:09.501Z,87.97
2019-02-15T01:43:39.999Z,88.62
2019-02-15T01:46:02.117Z,89.10
2019-02-15T01:48:28.419Z,90.03
2019-02-15T01:50:54.801Z,90.83
2019-02-15T01:53:21.107Z,92.01
2019-02-15T01:55:47.415Z,92.62
2019-02-15T01:58:13.725Z,92.89
2019-02-15T02:00:40.033Z,92.92
2019-02-15T02:03:06.371Z,93.09
2019-02-15T02:05:32.672Z,93.04
2019-02-15T02:07:58.981Z,93.00
2019-02-15T02:10:25.287Z,93.27
2019-02-15T02:12:51.596Z,93.33
2019-02-15T02:15:17.902Z,93.31
2019-02-15T02:17:44.207Z,93.34
2019-02-15T02:20:10.520Z,93.24
2019-02-15T02:22:36.824Z,93.57
2019-02-15T02:25:03.141Z,93.34
2019-02-15T02:27:29.450Z,93.00
2019-02-15T02:29:55.758Z,92.36
2019-02-15T02:32:22.074Z,93.20
2019-02-15T02:34:48.392Z,91.05
2019-02-15T02:37:14.691Z,90.25
2019-02-15T02:39:40.998Z,90.74
2019-02-15T02:42:07.303Z,91.26
2019-02-15T02:44:33.613Z,91.54
2019-02-15T02:46:59.924Z,91.42
2019-02-15T02:49:26.243Z,91.43
2019-02-15T02:51:52.542Z,91.33
2019-02-15T02:54:18.848Z,91.17
2019-02-15T02:56:45.158Z,90.62
2019-02-15T02:59:11.472Z,90.13
2019-02-15T03:01:37.777Z,90.23
2019-02-15T03:04:04.083Z,90.41
2019-02-15T03:06:30.399Z,90.67
2019-02-15T03:08:56.703Z,91.24
2019-02-15T03:11:23.010Z,91.51
2019-02-15T03:13:49.317Z,91.47
2019-02-15T03:16:15.635Z,91.47
2019-02-15T03:18:41.933Z,91.58
2019-02-15T03:21:08.240Z,92.00
2019-02-15T03:23:34.550Z,91.47
2019-02-15T03:26:00.863Z,91.43
2019-02-15T03:28:27.162Z,91.83
2019-02-15T03:30:53.470Z,91.31
2019-02-15T03:33:19.785Z,91.60
2019-02-15T03:35:46.094Z,91.90
2019-02-15T03:38:12.402Z,92.20
2019-02-15T03:40:38.709Z,92.06
2019-02-15T03:43:05.018Z,92.14
2019-02-15T03:45:31.325Z,92.14
2019-02-15T03:47:57.647Z,92.24
2019-02-15T03:50:23.957Z,92.82
2019-02-15T03:52:50.260Z,93.33
2019-02-15T03:55:16.604Z,93.95
2019-02-15T03:57:42.878Z,94.11
2019-02-15T04:00:09.184Z,94.31
2019-02-15T04:02:35.487Z,94.17
2019-02-15T04:05:01.803Z,93.93
2019-02-15T04:07:28.106Z,93.49
2019-02-15T04:09:54.424Z,93.72
2019-02-15T04:12:20.727Z,93.60
2019-02-15T04:14:47.041Z,93.52
2019-02-15T04:17:13.349Z,93.66
2019-02-15T04:19:39.666Z,93.65
2019-02-15T04:22:05.967Z,93.02
2019-02-15T04:24:32.274Z,92.94
2019-02-15T04:26:58.584Z,92.79
2019-02-15T04:29:24.891Z,92.67
2019-02-15T04:31:51.199Z,93.10
2019-02-15T04:34:17.541Z,93.28
2019-02-15T04:36:43.872Z,93.40
2019-02-15T04:39:10.190Z,93.05
2019-02-15T04:41:36.475Z,93.13
2019-02-15T04:44:02.786Z,93.26
2019-02-15T04:46:29.094Z,93.15
2019-02-15T04:48:55.411Z,93.28
2019-02-15T04:51:21.711Z,93.47
2019-02-15T04:53:48.027Z,93.76
2019-02-15T04:56:14.357Z,94.00
2019-02-15T04:58:40.692Z,93.86
2019-02-15T05:01:06.984Z,93.62
2019-02-15T05:03:33.297Z,93.46
2019-02-15T05:05:59.616Z,93.27
2019-02-15T05:08:25.923Z,93.72
2019-02-15T05:10:52.232Z,93.95
2019-02-15T05:13:18.543Z,94.33
2019-02-15T05:15:44.860Z,94.66
2019-02-15T05:18:11.155Z,95.22
2019-02-15T05:20:37.469Z,95.83
2019-02-15T05:23:03.783Z,96.12
2019-02-15T05:25:30.099Z,96.29
2019-02-15T05:27:56.399Z,96.19
2019-02-15T05:30:22.704Z,95.88
2019-02-15T05:32:49.015Z,95.73
2019-02-15T05:35:15.321Z,95.62
2019-02-15T05:37:41.653Z,95.24
2019-02-15T05:40:07.962Z,95.30
2019-02-15T05:42:34.274Z,95.36
2019-02-15T05:45:03.899Z,95.21
2019-02-15T05:47:26.913Z,95.47
2019-02-15T05:49:53.222Z,95.71
2019-02-15T05:52:19.525Z,95.78
2019-02-15T05:54:45.842Z,95.85
2019-02-15T05:57:12.143Z,96.02
2019-02-15T05:59:38.455Z,95.81
2019-02-15T06:02:04.761Z,95.64
2019-02-15T06:04:31.106Z,95.50
2019-02-15T06:06:57.427Z,95.38
2019-02-15T06:09:23.739Z,95.33
2019-02-15T06:11:50.044Z,95.01
2019-02-15T06:14:16.347Z,94.44
2019-02-15T06:16:42.688Z,93.61
2019-02-15T06:19:09.002Z,93.66
2019-02-15T06:21:35.387Z,93.89
2019-02-15T06:24:01.685Z,93.84
2019-02-15T06:26:28.004Z,93.65
2019-02-15T06:28:54.312Z,93.60
2019-02-15T06:31:20.623Z,93.27
2019-02-15T06:33:47.021Z,92.17
2019-02-15T06:36:13.333Z,91.08
2019-02-15T06:38:39.652Z,88.99
2019-02-15T06:41:05.961Z,88.89
2019-02-15T06:43:32.263Z,87.90
2019-02-15T06:45:58.576Z,87.33
2019-02-15T06:48:24.889Z,87.02
2019-02-15T06:50:51.193Z,86.93
2019-02-15T06:53:17.500Z,86.81
2019-02-15T06:55:43.811Z,86.45
2019-02-15T06:58:10.113Z,86.58
2019-02-15T07:00:36.423Z,85.58
2019-02-15T07:03:02.733Z,85.80
2019-02-15T07:05:29.049Z,86.18
2019-02-15T07:07:55.352Z,86.17
2019-02-15T07:10:21.672Z,86.15
2019-02-15T07:12:47.970Z,85.31
2019-02-15T07:15:14.281Z,85.08
2019-02-15T07:17:40.593Z,85.62
2019-02-15T07:20:06.903Z,85.74
2019-02-15T07:22:33.212Z,86.04
2019-02-15T07:24:59.539Z,86.56
2019-02-15T07:27:25.853Z,86.12
2019-02-15T07:29:52.161Z,84.27
2019-02-15T07:32:18.612Z,81.69
2019-02-15T07:34:44.924Z,81.15
2019-02-15T07:37:11.254Z,80.92
2019-02-15T07:39:37.554Z,81.25
2019-02-15T07:42:03.866Z,82.57
2019-02-15T07:44:30.174Z,82.65
2019-02-15T07:46:56.479Z,82.96
2019-02-15T07:49:26.787Z,83.09
2019-02-15T07:51:49.102Z,81.90
2019-02-15T07:54:15.412Z,81.20
2019-02-15T07:56:41.722Z,80.50
2019-02-15T07:59:08.157Z,79.16
2019-02-15T08:01:34.454Z,78.78
2019-02-15T08:04:00.780Z,77.38
2019-02-15T08:06:27.091Z,77.59
2019-02-15T08:08:53.391Z,78.44
2019-02-15T08:11:19.706Z,78.40
2019-02-15T08:13:46.012Z,76.46
2019-02-15T08:16:12.321Z,75.17
2019-02-15T08:18:38.629Z,75.55
2019-02-15T08:21:04.940Z,74.21
2019-02-15T08:23:31.261Z,74.79
2019-02-15T08:25:57.572Z,74.22
2019-02-15T08:28:23.873Z,72.54
2019-02-15T08:30:50.179Z,73.02
2019-02-15T08:33:16.483Z,72.97
2019-02-15T08:35:42.790Z,73.85
2019-02-15T08:38:09.106Z,73.96
2019-02-15T08:40:37.332Z,74.35
2019-02-15T08:43:01.721Z,73.85
2019-02-15T08:45:28.048Z,73.35
2019-02-15T08:47:54.356Z,73.17
2019-02-15T08:50:20.664Z,73.67
2019-02-15T08:52:46.972Z,73.52
2019-02-15T08:55:13.280Z,73.73
2019-02-15T08:57:39.636Z,73.56
2019-02-15T09:00:05.944Z,73.90
2019-02-15T09:02:32.249Z,73.74
2019-02-15T09:04:58.559Z,72.45
2019-02-15T09:07:24.904Z,72.89
2019-02-15T09:09:51.213Z,72.68
2019-02-15T09:12:17.518Z,71.17
2019-02-15T09:14:43.849Z,70.70
2019-02-15T09:17:10.151Z,71.44
2019-02-15T09:19:36.460Z,70.97
2019-02-15T09:22:02.768Z,71.40
2019-02-15T09:24:29.080Z,73.25
2019-02-15T09:26:55.375Z,71.09
2019-02-15T09:29:21.685Z,72.51
2019-02-15T09:31:48.031Z,72.60
2019-02-15T09:34:14.308Z,72.41
2019-02-15T09:36:40.641Z,71.41
2019-02-15T09:39:06.955Z,71.80
2019-02-15T09:41:33.274Z,72.12
2019-02-15T09:43:59.569Z,71.15
2019-02-15T09:46:25.877Z,69.73
2019-02-15T09:48:52.189Z,67.78
2019-02-15T09:51:18.495Z,69.39
2019-02-15T09:53:44.802Z,69.87
2019-02-15T09:56:11.108Z,69.21
2019-02-15T09:58:37.422Z,71.06
2019-02-15T10:01:03.726Z,69.85
2019-02-15T10:03:30.030Z,68.35
2019-02-15T10:05:56.341Z,69.38
2019-02-15T10:08:22.656Z,69.10
2019-02-15T10:10:48.956Z,69.32
2019-02-15T10:13:15.269Z,69.24
2019-02-15T10:15:41.573Z,69.19
2019-02-15T10:18:07.887Z,68.74
2019-02-15T10:20:34.191Z,69.62
2019-02-15T10:23:00.520Z,69.41
2019-02-15T10:25:26.812Z,70.33
2019-02-15T10:27:53.211Z,70.37
2019-02-15T10:30:19.516Z,70.36
2019-02-15T10:32:45.829Z,70.50
2019-02-15T10:35:12.149Z,71.42
2019-02-15T10:37:38.455Z,71.67
2019-02-15T10:40:04.771Z,72.16
2019-02-15T10:42:31.077Z,72.19
2019-02-15T10:44:57.393Z,72.62
2019-02-15T10:47:25.305Z,73.35
2019-02-15T10:49:50.000Z,73.95
2019-02-15T10:52:16.312Z,74.31
2019-02-15T10:54:42.619Z,74.98
2019-02-15T10:57:08.920Z,75.81
2019-02-15T10:59:35.234Z,76.77
2019-02-15T11:02:01.557Z,77.06
2019-02-15T11:04:27.868Z,76.73
2019-02-15T11:06:54.168Z,77.05
2019-02-15T11:09:20.486Z,76.83
2019-02-15T11:11:46.794Z,76.35
2019-02-15T11:14:13.111Z,77.19
2019-02-15T11:16:47.026Z,77.39
2019-02-15T11:19:05.722Z,76.72
2019-02-15T11:21:32.030Z,76.90
2019-02-15T11:23:58.338Z,75.67
2019-02-15T11:26:25.073Z,76.18
2019-02-15T11:28:50.952Z,75.06
2019-02-15T11:31:17.259Z,75.33
2019-02-15T11:33:43.564Z,75.78
2019-02-15T11:36:09.876Z,74.98
2019-02-15T11:38:36.182Z,75.65
2019-02-15T11:41:10.715Z,76.46
2019-02-15T11:43:28.785Z,76.84
2019-02-15T11:45:55.098Z,75.73
2019-02-15T11:48:21.404Z,76.08
2019-02-15T11:50:47.716Z,76.05
2019-02-15T11:53:14.021Z,76.96
2019-02-15T11:55:40.328Z,77.32
2019-02-15T11:58:06.665Z,77.78
2019-02-15T12:00:32.977Z,79.41
2019-02-15T12:02:59.289Z,79.39
2019-02-15T12:05:25.633Z,80.04
2019-02-15T12:07:51.944Z,79.49
2019-02-15T12:10:18.257Z,80.12
2019-02-15T12:12:44.569Z,79.89
2019-02-15T12:15:10.877Z,79.63
2019-02-15T12:17:37.188Z,79.82
2019-02-15T12:20:03.496Z,79.52
2019-02-15T12:22:29.800Z,80.50
2019-02-15T12:24:56.125Z,79.95
2019-02-15T12:27:22.430Z,79.16
2019-02-15T12:29:48.737Z,79.80
2019-02-15T12:32:15.045Z,79.55
2019-02-15T12:34:41.356Z,79.70
2019-02-15T12:37:07.660Z,77.56
2019-02-15T12:39:33.973Z,78.22
2019-02-15T12:42:00.281Z,78.35
2019-02-15T12:44:27.824Z,78.30
2019-02-15T12:46:52.902Z,77.33
2019-02-15T12:49:19.220Z,76.78
2019-02-15T12:51:45.617Z,77.24
2019-02-15T12:54:11.926Z,76.40
2019-02-15T12:56:38.236Z,76.64
2019-02-15T12:59:04.537Z,75.71
2019-02-15T13:01:30.852Z,76.61
2019-02-15T13:03:57.162Z,76.62
2019-02-15T13:06:28.670Z,76.98
2019-02-15T13:08:49.781Z,77.04
2019-02-15T13:11:16.089Z,77.24
2019-02-15T13:13:42.397Z,77.61
2019-02-15T13:16:08.711Z,78.67
2019-02-15T13:18:35.018Z,78.56
2019-02-15T13:21:01.331Z,78.93
2019-02-15T13:23:27.644Z,78.87
2019-02-15T13:25:53.991Z,79.51
2019-02-15T13:28:20.258Z,79.94
2019-02-15T13:30:46.564Z,80.31
2019-02-15T13:33:12.874Z,81.11
2019-02-15T13:35:39.184Z,80.57
2019-02-15T13:38:05.511Z,82.26
2019-02-15T13:40:31.830Z,84.20
2019-02-15T13:42:58.142Z,85.54
2019-02-15T13:45:24.437Z,86.99
2019-02-15T13:47:50.756Z,87.63
2019-02-15T13:50:19.013Z,87.60
2019-02-15T13:52:43.405Z,87.43
2019-02-15T13:55:09.736Z,87.20
2019-02-15T13:57:36.032Z,87.02
2019-02-15T14:00:02.336Z,86.54
2019-02-15T14:02:28.659Z,86.87
2019-02-15T14:04:54.969Z,85.45
2019-02-15T14:07:21.288Z,85.73
2019-02-15T14:09:47.595Z,85.54
2019-02-15T14:12:13.913Z,85.66
2019-02-15T14:14:40.215Z,85.17
2019-02-15T14:17:06.541Z,85.66
2019-02-15T14:19:32.847Z,84.87
2019-02-15T14:21:59.161Z,85.47
2019-02-15T14:24:25.470Z,85.65
2019-02-15T14:26:51.782Z,85.60
2019-02-15T14:29:18.097Z,85.74
2019-02-15T14:31:44.416Z,86.13
2019-02-15T14:34:10.728Z,85.42
2019-02-15T14:36:37.040Z,85.45
2019-02-15T14:39:03.354Z,85.67
2019-02-15T14:41:29.656Z,85.24
2019-02-15T14:43:55.976Z,85.66
2019-02-15T14:46:22.286Z,85.48
2019-02-15T14:48:48.592Z,85.32
2019-02-15T14:51:14.897Z,85.32
2019-02-15T14:53:41.213Z,85.38
2019-02-15T14:56:07.518Z,85.18
2019-02-15T14:58:33.839Z,84.93
2019-02-15T15:01:00.142Z,84.52
2019-02-15T15:03:26.448Z,84.30
2019-02-15T15:05:54.847Z,83.79
2019-02-15T15:08:19.059Z,83.73
2019-02-15T15:10:45.387Z,83.97
2019-02-15T15:13:11.710Z,84.26
2019-02-15T15:15:38.017Z,84.78
2019-02-15T15:18:12.666Z,84.87
2019-02-15T15:20:30.627Z,84.82
2019-02-15T15:22:56.941Z,84.77
2019-02-15T15:25:23.257Z,84.37
2019-02-15T15:27:49.562Z,84.29
2019-02-15T15:30:15.873Z,84.00
2019-02-15T15:32:42.177Z,83.83
2019-02-15T15:35:08.509Z,83.35
2019-02-15T15:37:34.812Z,83.65
2019-02-15T15:40:01.120Z,84.16
2019-02-15T15:42:27.455Z,84.09
2019-02-15T15:44:53.743Z,84.00
2019-02-15T15:47:20.053Z,83.40
2019-02-15T15:49:46.361Z,83.02
2019-02-15T15:52:12.668Z,82.89
2019-02-15T15:54:38.981Z,83.35
2019-02-15T15:57:05.283Z,83.23
2019-02-15T15:59:31.591Z,83.04
2019-02-15T16:01:57.898Z,82.80
2019-02-15T16:04:24.216Z,83.11
2019-02-15T16:06:50.557Z,83.28
2019-02-15T16:09:16.866Z,83.07
2019-02-15T16:11:43.175Z,82.80
2019-02-15T16:14:09.540Z,82.91
2019-02-15T16:16:35.796Z,82.89
2019-02-15T16:19:02.105Z,83.01
2019-02-15T16:21:28.417Z,82.58
2019-02-15T16:23:54.741Z,82.68
2019-02-15T16:26:21.048Z,82.55
2019-02-15T16:28:47.355Z,82.71
2019-02-15T16:31:13.659Z,82.88
2019-02-15T16:33:39.968Z,83.00
2019-02-15T16:36:06.277Z,82.84
2019-02-15T16:38:32.654Z,82.72
2019-02-15T16:40:58.907Z,83.01
2019-02-15T16:43:25.223Z,82.97
2019-02-15T16:45:51.528Z,82.68
2019-02-15T16:48:17.840Z,82.42
2019-02-15T16:50:44.145Z,82.63
2019-02-15T16:53:10.455Z,82.95
2019-02-15T16:55:36.759Z,83.17
2019-02-15T16:58:03.069Z,82.94
2019-02-15T17:00:29.380Z,82.96
2019-02-15T17:02:55.683Z,83.24
2019-02-15T17:05:21.997Z,83.13
2019-02-15T17:07:48.324Z,83.16
2019-02-15T17:10:14.629Z,83.06
2019-02-15T17:12:40.938Z,83.33
2019-02-15T17:15:07.251Z,82.69
2019-02-15T17:17:33.557Z,82.34
2019-02-15T17:19:59.866Z,82.22
2019-02-15T17:22:26.182Z,81.84
2019-02-15T17:24:52.496Z,81.70
2019-02-15T17:27:18.802Z,80.58
2019-02-15T17:29:45.132Z,80.34
2019-02-15T17:32:11.438Z,79.74
2019-02-15T17:34:37.755Z,79.67
2019-02-15T17:37:04.082Z,79.33
2019-02-15T17:39:30.413Z,78.89
2019-02-15T17:41:56.724Z,78.92
2019-02-15T17:44:23.028Z,78.99
2019-02-15T17:46:49.337Z,78.87
2019-02-15T17:49:15.645Z,78.92
2019-02-15T17:51:41.979Z,79.18
2019-02-15T17:54:08.263Z,78.77
2019-02-15T17:56:34.568Z,78.81
2019-02-15T17:59:00.876Z,79.26
2019-02-15T18:01:27.193Z,79.29
2019-02-15T18:03:53.525Z,79.61
2019-02-15T18:06:19.857Z,79.23
2019-02-15T18:08:46.164Z,79.00
2019-02-15T18:11:12.472Z,78.95
2019-02-15T18:13:38.777Z,79.21
2019-02-15T18:16:05.091Z,79.58
2019-02-15T18:18:31.402Z,79.66
2019-02-15T18:20:57.726Z,79.34
2019-02-15T18:23:24.049Z,79.21
2019-02-15T18:25:50.361Z,79.04
2019-02-15T18:28:16.671Z,78.64
2019-02-15T18:30:42.981Z,78.46
2019-02-15T18:33:09.292Z,78.15
2019-02-15T18:35:35.602Z,78.19
2019-02-15T18:38:01.905Z,77.85
2019-02-15T18:40:28.209Z,77.66
2019-02-15T18:42:54.568Z,77.98
2019-02-15T18:45:20.905Z,77.89
2019-02-15T18:47:47.212Z,77.89
2019-02-15T18:50:13.526Z,78.03
2019-02-15T18:52:39.836Z,77.89
2019-02-15T18:55:06.149Z,77.96
2019-02-15T18:57:32.500Z,77.86
2019-02-15T18:59:58.756Z,77.53
2019-02-15T19:02:25.179Z,77.58
2019-02-15T19:04:51.554Z,77.48
2019-02-15T19:07:17.867Z,77.61
2019-02-15T19:09:44.169Z,77.64
2019-02-15T19:12:10.471Z,77.22
2019-02-15T19:14:36.779Z,76.12
2019-02-15T19:17:03.089Z,76.16
2019-02-15T19:19:29.543Z,76.30
2019-02-15T19:21:55.831Z,76.64
2019-02-15T19:24:22.148Z,76.67
2019-02-15T19:26:48.446Z,76.43
2019-02-15T19:29:14.752Z,76.51
2019-02-15T19:31:42.554Z,76.40
2019-02-15T19:34:07.372Z,76.03
2019-02-15T19:36:33.681Z,75.78
2019-02-15T19:39:00.070Z,75.89
2019-02-15T19:41:26.441Z,75.81
2019-02-15T19:43:52.754Z,76.06
2019-02-15T19:46:19.062Z,76.34
2019-02-15T19:48:45.384Z,76.14
2019-02-15T19:51:11.705Z,76.15
2019-02-15T19:53:38.064Z,75.79
2019-02-15T19:56:04.581Z,77.57
2019-02-15T19:58:30.887Z,77.47
2019-02-15T20:00:57.195Z,75.29
2019-02-15T20:03:23.558Z,74.35
2019-02-15T20:05:49.864Z,72.91
2019-02-15T20:08:16.206Z,72.96
2019-02-15T20:10:42.521Z,74.35
2019-02-15T20:13:08.839Z,77.51
2019-02-15T20:15:35.169Z,73.68
2019-02-15T20:18:01.481Z,72.11
2019-02-15T20:20:27.840Z,71.50
2019-02-15T20:22:54.166Z,70.46
2019-02-15T20:25:20.472Z,70.61
2019-02-15T20:27:46.779Z,70.15
2019-02-15T20:30:13.084Z,71.67
2019-02-15T20:32:39.392Z,71.38
2019-02-15T20:35:05.732Z,70.68
2019-02-15T20:37:32.056Z,70.56
2019-02-15T20:39:58.368Z,70.80
2019-02-15T20:42:24.671Z,71.01
2019-02-15T20:44:50.978Z,70.65
2019-02-15T20:47:17.286Z,69.35
2019-02-15T20:49:43.606Z,69.75
2019-02-15T20:52:09.911Z,71.17
2019-02-15T20:54:36.222Z,71.23
2019-02-15T20:57:02.528Z,71.21
2019-02-15T20:59:28.858Z,71.33
2019-02-15T21:01:55.168Z,72.04
2019-02-15T21:04:21.483Z,72.50
2019-02-15T21:06:47.812Z,71.14
2019-02-15T21:09:15.487Z,71.12
2019-02-15T21:11:40.505Z,71.77
2019-02-15T21:14:06.808Z,72.75
2019-02-15T21:16:33.118Z,73.05
2019-02-15T21:18:59.423Z,73.06
2019-02-15T21:21:25.727Z,72.74
2019-02-15T21:23:52.041Z,73.39
2019-02-15T21:26:18.354Z,73.88
2019-02-15T21:28:44.652Z,74.16
2019-02-15T21:31:10.973Z,74.69
2019-02-15T21:33:37.295Z,74.61
2019-02-15T21:36:03.630Z,75.14
2019-02-15T21:38:30.106Z,75.16
2019-02-15T21:40:56.463Z,75.00
2019-02-15T21:43:25.524Z,75.06
2019-02-15T21:45:51.815Z,75.42
2019-02-15T21:48:22.030Z,75.20
2019-02-15T21:50:49.632Z,75.45
2019-02-15T21:53:18.550Z,75.92
2019-02-15T21:55:42.932Z,76.00
2019-02-15T21:58:11.204Z,76.29
2019-02-15T22:00:37.101Z,76.16
2019-02-15T22:03:02.279Z,76.34
2019-02-15T22:05:28.623Z,76.05
2019-02-15T22:07:55.017Z,76.13
2019-02-15T22:10:24.767Z,76.39
2019-02-15T22:12:50.120Z,76.41
2019-02-15T22:15:16.421Z,76.32
2019-02-15T22:17:42.740Z,76.31
2019-02-15T22:20:09.047Z,76.43
2019-02-15T22:22:35.351Z,76.40
2019-02-15T22:25:01.660Z,76.41
2019-02-15T22:27:27.968Z,76.38
2019-02-15T22:29:54.302Z,76.62
2019-02-15T22:32:20.603Z,76.89
2019-02-15T22:34:46.908Z,76.80
2019-02-15T22:37:13.232Z,76.77
2019-02-15T22:39:39.535Z,76.95
2019-02-15T22:42:05.857Z,77.43
2019-02-15T22:44:32.168Z,76.51
2019-02-15T22:46:58.500Z,76.84
2019-02-15T22:49:24.808Z,76.63
2019-02-15T22:51:51.112Z,76.85
2019-02-15T22:54:17.419Z,76.72
2019-02-15T22:56:43.725Z,76.75
2019-02-15T22:59:10.026Z,76.98
2019-02-15T23:01:36.333Z,76.94
2019-02-15T23:04:02.661Z,76.54
2019-02-15T23:06:28.966Z,76.42
2019-02-15T23:08:55.273Z,76.11
2019-02-15T23:11:21.601Z,76.24
2019-02-15T23:13:48.104Z,76.47
2019-02-15T23:16:14.220Z,76.29
2019-02-15T23:18:40.524Z,76.51
2019-02-15T23:21:06.902Z,76.15
2019-02-15T23:23:33.190Z,76.32
2019-02-15T23:25:59.558Z,76.29
2019-02-15T23:28:25.802Z,76.42
2019-02-15T23:30:52.108Z,76.52
2019-02-15T23:33:18.418Z,76.48
2019-02-15T23:35:44.728Z,76.45
2019-02-15T23:38:11.033Z,76.67
2019-02-15T23:40:37.339Z,76.88
2019-02-15T23:43:03.648Z,77.11
2019-02-15T23:45:29.947Z,77.18
2019-02-15T23:47:56.251Z,77.25
2019-02-15T23:50:22.551Z,77.37
2019-02-15T23:52:48.870Z,77.04
2019-02-15T23:55:15.164Z,77.49
2019-02-15T23:57:41.472Z,77.21
